Hornepayne, Canada
Current Conditions -  °F | °C
As of 5:00 PM on Monday 22 Dec 2014 (Local Time) from CYSP Reporting Station
Haze Haze  
Wind Chill: 24°   Ceiling: 300
Heat Index: 32°   Visibility: 1mi
Dew Point: 30°   Wind: 10mph
Humidity: 93%   Direction: 170°S
Pressure: 29.89"   Gusts: 17mph
Location:  49.22°N, 84.78°W
Report Text: CYSP 222200Z 17009G15KT 1SM BR BKN003 OVC005 00/M01 A2989 RMK FG4SF2SF2 LAST OBS/NEXT 231300UTC SLP137
Loading
Personal Weather Stations






























Interactive Weather Map New forecast layout! Learn more

10-Day Weather Forecast

Advertisements
Track Severe Weather on mobile